createdAt,value
2022-10-20T00:00:57.036Z,96.08
2022-10-20T00:01:57.034Z,96.18
2022-10-20T00:02:57.107Z,96.28
2022-10-20T00:03:57.014Z,96.39
2022-10-20T00:04:57.004Z,96.48
2022-10-20T00:05:56.989Z,96.48
2022-10-20T00:06:56.975Z,96.48
2022-10-20T00:07:56.960Z,96.59
2022-10-20T00:08:57.082Z,96.73
2022-10-20T00:09:56.940Z,96.84
2022-10-20T00:10:57.893Z,96.84
2022-10-20T00:11:56.936Z,96.94
2022-10-20T00:12:56.935Z,97.05
2022-10-20T00:13:56.895Z,97.25
2022-10-20T00:14:56.916Z,97.31
2022-10-20T00:15:56.887Z,97.41
2022-10-20T00:16:56.866Z,97.62
2022-10-20T00:17:56.877Z,97.62
2022-10-20T00:18:56.850Z,97.52
2022-10-20T00:19:56.836Z,97.52
2022-10-20T00:20:56.818Z,97.41
2022-10-20T00:21:56.808Z,97.20
2022-10-20T00:22:56.799Z,97.10
2022-10-20T00:23:56.863Z,97.10
2022-10-20T00:24:56.780Z,97.00
2022-10-20T00:25:56.760Z,96.90
2022-10-20T00:26:56.759Z,96.90
2022-10-20T00:27:56.745Z,96.90
2022-10-20T00:28:56.730Z,96.80
2022-10-20T00:29:56.740Z,96.80
2022-10-20T00:30:56.714Z,96.80
2022-10-20T00:31:56.711Z,96.59
2022-10-20T00:32:56.690Z,96.39
2022-10-20T00:33:56.736Z,96.39
2022-10-20T00:34:56.683Z,96.39
2022-10-20T00:35:56.662Z,96.53
2022-10-20T00:36:56.672Z,96.64
2022-10-20T00:37:56.622Z,96.73
2022-10-20T00:38:56.631Z,96.84
2022-10-20T00:39:56.616Z,96.94
2022-10-20T00:40:56.597Z,96.94
2022-10-20T00:41:56.607Z,96.94
2022-10-20T00:42:56.606Z,96.94
2022-10-20T00:43:56.573Z,96.94
2022-10-20T00:44:56.583Z,97.05
2022-10-20T00:45:56.543Z,97.15
2022-10-20T00:46:56.576Z,97.25
2022-10-20T00:47:56.520Z,97.25
2022-10-20T00:48:56.513Z,97.36
2022-10-20T00:49:56.516Z,97.45
2022-10-20T00:50:56.491Z,97.45
2022-10-20T00:51:56.474Z,97.45
2022-10-20T00:52:56.497Z,97.25
2022-10-20T00:53:56.460Z,97.05
2022-10-20T00:54:56.465Z,96.94
2022-10-20T00:55:56.441Z,96.94
2022-10-20T00:56:56.509Z,96.94
2022-10-20T00:57:56.422Z,97.05
2022-10-20T00:58:56.404Z,97.19
2022-10-20T00:59:56.414Z,97.36
2022-10-20T01:00:56.377Z,97.56
2022-10-20T01:01:56.395Z,97.66
2022-10-20T01:02:56.357Z,97.77
2022-10-20T01:03:56.404Z,97.77
2022-10-20T01:04:56.362Z,97.77
2022-10-20T01:05:56.338Z,97.66
2022-10-20T01:06:56.340Z,97.66
2022-10-20T01:07:56.318Z,97.45
2022-10-20T01:08:56.389Z,97.45
2022-10-20T01:09:56.280Z,97.36
2022-10-20T01:10:56.292Z,97.36
2022-10-20T01:11:56.283Z,97.36
2022-10-20T01:12:56.250Z,97.36
2022-10-20T01:13:56.266Z,97.36
2022-10-20T01:14:56.260Z,97.36
2022-10-20T01:15:56.204Z,97.25
2022-10-20T01:16:56.211Z,97.15
2022-10-20T01:17:56.189Z,97.15
2022-10-20T01:18:56.188Z,97.05
2022-10-20T01:19:56.171Z,97.05
2022-10-20T01:20:56.194Z,97.05
2022-10-20T01:21:56.162Z,97.05
2022-10-20T01:22:56.142Z,97.05
2022-10-20T01:23:56.175Z,97.15
2022-10-20T01:24:56.127Z,97.15
2022-10-20T01:25:56.095Z,97.25
2022-10-20T01:26:56.092Z,97.25
2022-10-20T01:27:56.083Z,97.25
2022-10-20T01:28:56.104Z,97.15
2022-10-20T01:29:56.070Z,97.15
2022-10-20T01:30:56.048Z,97.15
2022-10-20T01:31:56.073Z,97.25
2022-10-20T01:32:56.044Z,97.15
2022-10-20T01:33:56.020Z,97.15
2022-10-20T01:34:56.012Z,97.15
2022-10-20T01:35:56.014Z,97.20
2022-10-20T01:36:55.985Z,97.20
2022-10-20T01:37:56.397Z,97.25
2022-10-20T01:38:55.968Z,97.25
2022-10-20T01:39:55.945Z,97.31
2022-10-20T01:40:55.996Z,97.20
2022-10-20T01:41:55.926Z,97.00
2022-10-20T01:42:55.916Z,96.94
2022-10-20T01:43:55.905Z,96.84
2022-10-20T01:44:55.899Z,96.84
2022-10-20T01:45:55.898Z,96.84
2022-10-20T01:46:55.947Z,96.73
2022-10-20T01:47:55.873Z,96.73
2022-10-20T01:48:55.847Z,96.73
2022-10-20T01:49:55.847Z,96.89
2022-10-20T01:50:55.876Z,96.99
2022-10-20T01:51:55.811Z,97.19
2022-10-20T01:52:55.829Z,97.19
2022-10-20T01:53:55.790Z,97.30
2022-10-20T01:54:55.788Z,97.30
2022-10-20T01:55:55.771Z,97.50
2022-10-20T01:56:55.759Z,97.61
2022-10-20T01:57:55.771Z,97.61
2022-10-20T01:58:55.751Z,97.61
2022-10-20T01:59:55.729Z,97.61
2022-10-20T02:01:55.784Z,97.61
2022-10-20T02:02:55.692Z,97.61
2022-10-20T02:03:55.698Z,97.65
2022-10-20T02:04:55.683Z,97.65
2022-10-20T02:05:55.661Z,97.65
2022-10-20T02:06:55.671Z,97.75
2022-10-20T02:07:55.671Z,97.86
2022-10-20T02:08:55.667Z,97.86
2022-10-20T02:10:55.638Z,97.96
2022-10-20T02:11:55.598Z,97.96
2022-10-20T02:12:55.584Z,97.96
2022-10-20T02:13:55.570Z,98.06
2022-10-20T02:14:55.555Z,98.06
2022-10-20T02:15:55.582Z,98.16
2022-10-20T02:16:55.534Z,98.06
2022-10-20T02:17:55.548Z,97.96
2022-10-20T02:18:55.541Z,97.86
2022-10-20T02:19:55.525Z,97.86
2022-10-20T02:20:55.505Z,97.96
2022-10-20T02:21:55.485Z,97.96
2022-10-20T02:22:55.510Z,97.96
2022-10-20T02:23:55.481Z,98.06
2022-10-20T02:24:55.450Z,98.06
2022-10-20T02:25:55.431Z,98.16
2022-10-20T02:26:55.447Z,98.16
2022-10-20T02:27:55.443Z,98.27
2022-10-20T02:28:55.416Z,98.37
2022-10-20T02:29:55.405Z,98.47
2022-10-20T02:30:55.399Z,98.58
2022-10-20T02:31:55.370Z,98.58
2022-10-20T02:32:55.363Z,98.68
2022-10-20T02:33:55.343Z,98.68
2022-10-20T02:34:55.340Z,98.58
2022-10-20T02:35:55.353Z,98.58
2022-10-20T02:36:55.325Z,98.47
2022-10-20T02:37:55.299Z,98.47
2022-10-20T02:38:55.298Z,98.47
2022-10-20T02:39:55.286Z,98.47
2022-10-20T02:40:55.291Z,98.47
2022-10-20T02:41:55.258Z,98.47
2022-10-20T02:42:55.273Z,98.58
2022-10-20T02:43:55.270Z,98.58
2022-10-20T02:44:55.266Z,98.47
2022-10-20T02:45:55.217Z,98.47
2022-10-20T02:46:55.201Z,98.58
2022-10-20T02:47:55.191Z,98.58
2022-10-20T02:48:55.189Z,98.58
2022-10-20T02:49:55.178Z,98.68
2022-10-20T02:50:55.180Z,98.68
2022-10-20T02:51:55.151Z,98.68
2022-10-20T02:52:55.164Z,98.58
2022-10-20T02:53:55.151Z,98.47
2022-10-20T02:54:55.123Z,98.47
2022-10-20T02:55:55.102Z,98.27
2022-10-20T02:56:55.096Z,98.27
2022-10-20T02:57:55.085Z,98.27
2022-10-20T02:58:55.135Z,98.27
2022-10-20T02:59:55.053Z,98.27
2022-10-20T03:00:55.082Z,98.37
2022-10-20T03:01:55.144Z,98.37
2022-10-20T03:02:55.045Z,98.37
2022-10-20T03:03:55.005Z,98.16
2022-10-20T03:04:55.045Z,98.06
2022-10-20T03:05:55.017Z,98.06
2022-10-20T03:06:55.020Z,98.06
2022-10-20T03:07:54.978Z,97.96
2022-10-20T03:08:55.007Z,98.06
2022-10-20T03:09:54.945Z,98.06
2022-10-20T03:10:54.945Z,98.27
2022-10-20T03:11:54.946Z,98.27
2022-10-20T03:12:54.941Z,98.47
2022-10-20T03:13:54.917Z,98.47
2022-10-20T03:14:54.897Z,98.47
2022-10-20T03:15:54.898Z,98.47
2022-10-20T03:16:54.865Z,98.47
2022-10-20T03:17:54.889Z,98.58
2022-10-20T03:18:57.596Z,98.58
2022-10-20T03:19:54.947Z,98.58
2022-10-20T03:20:54.849Z,98.68
2022-10-20T03:21:54.823Z,98.68
2022-10-20T03:22:54.817Z,98.68
2022-10-20T03:23:54.830Z,98.68
2022-10-20T03:24:54.783Z,98.68
2022-10-20T03:25:54.774Z,98.68
2022-10-20T03:26:54.759Z,98.79
2022-10-20T03:27:54.759Z,98.79
2022-10-20T03:28:54.761Z,98.88
2022-10-20T03:29:55.701Z,98.88
2022-10-20T03:30:54.744Z,98.88
2022-10-20T03:31:54.730Z,98.88
2022-10-20T03:32:54.721Z,98.88
2022-10-20T03:33:54.728Z,98.88
2022-10-20T03:34:54.713Z,98.88
2022-10-20T03:35:54.660Z,98.88
2022-10-20T03:36:54.663Z,98.88
2022-10-20T03:37:54.631Z,98.88
2022-10-20T03:38:54.725Z,98.88
2022-10-20T03:39:54.640Z,98.88
2022-10-20T03:40:54.646Z,98.88
2022-10-20T03:41:54.595Z,98.88
2022-10-20T03:42:54.592Z,98.88
2022-10-20T03:43:54.589Z,98.88
2022-10-20T03:44:54.581Z,98.88
2022-10-20T03:45:54.579Z,98.99
2022-10-20T03:46:54.541Z,98.99
2022-10-20T03:47:54.585Z,99.09
2022-10-20T03:48:54.516Z,99.09
2022-10-20T03:49:54.564Z,99.09
2022-10-20T03:50:54.509Z,99.19
2022-10-20T03:51:54.504Z,99.09
2022-10-20T03:52:54.475Z,99.09
2022-10-20T03:53:54.478Z,98.99
2022-10-20T03:54:54.454Z,98.99
2022-10-20T03:55:54.459Z,98.99
2022-10-20T03:56:54.467Z,98.88
2022-10-20T03:57:54.416Z,98.79
2022-10-20T03:58:54.480Z,98.79
2022-10-20T03:59:54.400Z,98.79
2022-10-20T04:00:54.379Z,98.79
2022-10-20T04:01:54.427Z,98.88
2022-10-20T04:02:54.396Z,98.88
2022-10-20T04:03:54.353Z,98.88
2022-10-20T04:04:54.347Z,98.79
2022-10-20T04:05:54.331Z,98.79
2022-10-20T04:06:54.326Z,98.68
2022-10-20T04:07:54.310Z,98.68
2022-10-20T04:08:54.414Z,98.53
2022-10-20T04:09:54.389Z,98.47
2022-10-20T04:10:54.268Z,98.47
2022-10-20T04:11:54.278Z,98.37
2022-10-20T04:12:55.720Z,98.37
2022-10-20T04:13:54.262Z,98.47
2022-10-20T04:14:54.241Z,98.47
2022-10-20T04:15:54.239Z,98.47
2022-10-20T04:16:54.210Z,98.58
2022-10-20T04:17:54.201Z,98.58
2022-10-20T04:18:54.211Z,98.58
2022-10-20T04:19:55.131Z,98.58
2022-10-20T04:20:54.196Z,98.58
2022-10-20T04:21:54.152Z,98.68
2022-10-20T04:22:54.147Z,98.68
2022-10-20T04:23:54.132Z,98.68
2022-10-20T04:24:54.124Z,98.79
2022-10-20T04:25:54.102Z,98.79
2022-10-20T04:26:54.123Z,98.79
2022-10-20T04:27:54.099Z,98.79
2022-10-20T04:28:54.072Z,98.84
2022-10-20T04:29:54.064Z,98.84
2022-10-20T04:30:55.017Z,98.84
2022-10-20T04:31:54.075Z,98.84
2022-10-20T04:32:54.030Z,98.94
2022-10-20T04:33:54.040Z,98.94
2022-10-20T04:34:54.004Z,98.94
2022-10-20T04:35:54.010Z,98.94
2022-10-20T04:36:53.983Z,99.05
2022-10-20T04:37:54.469Z,99.05
2022-10-20T04:38:53.970Z,99.25
2022-10-20T04:39:53.959Z,99.35
2022-10-20T04:40:54.611Z,99.35
2022-10-20T04:41:53.945Z,99.46
2022-10-20T04:42:53.937Z,99.46
2022-10-20T04:43:53.955Z,99.46
2022-10-20T04:44:53.967Z,99.51
2022-10-20T04:45:53.908Z,99.62
2022-10-20T04:46:53.876Z,99.62
2022-10-20T04:47:53.886Z,99.62
2022-10-20T04:48:53.848Z,99.72
2022-10-20T04:49:53.861Z,99.82
2022-10-20T04:50:53.846Z,99.82
2022-10-20T04:51:57.423Z,99.77
2022-10-20T04:52:54.840Z,99.77
2022-10-20T04:53:53.889Z,99.77
2022-10-20T04:54:53.811Z,99.88
2022-10-20T04:55:53.790Z,99.98
2022-10-20T04:56:53.790Z,99.98
2022-10-20T04:57:53.847Z,99.99
2022-10-20T04:58:53.743Z,99.99
2022-10-20T04:59:53.771Z,99.99
2022-10-20T05:00:53.720Z,99.99
2022-10-20T05:01:53.827Z,99.99
2022-10-20T05:02:53.714Z,99.99
2022-10-20T05:03:53.690Z,99.99
2022-10-20T05:04:53.670Z,99.99
2022-10-20T05:05:53.709Z,99.99
2022-10-20T05:06:53.682Z,99.99
2022-10-20T05:07:53.656Z,99.99
2022-10-20T05:08:53.667Z,99.99
2022-10-20T05:09:53.667Z,99.99
2022-10-20T05:10:53.607Z,99.99
2022-10-20T05:11:53.605Z,99.99
2022-10-20T05:12:53.622Z,99.99
2022-10-20T05:13:53.578Z,99.99
2022-10-20T05:14:53.575Z,99.99
2022-10-20T05:15:53.574Z,99.99
2022-10-20T05:16:53.547Z,99.99
2022-10-20T05:17:53.920Z,99.99
2022-10-20T05:18:54.487Z,99.99
2022-10-20T05:19:53.522Z,99.99
2022-10-20T05:21:09.968Z,99.96
2022-10-20T05:21:54.502Z,99.76
2022-10-20T05:22:53.507Z,99.66
2022-10-20T05:23:53.489Z,99.45
2022-10-20T05:24:53.466Z,99.25
2022-10-20T05:25:53.446Z,98.94
2022-10-20T05:26:53.436Z,98.69
2022-10-20T05:27:53.416Z,98.38
2022-10-20T05:28:53.436Z,98.18
2022-10-20T05:29:53.403Z,97.97
2022-10-20T05:30:55.579Z,97.62
2022-10-20T05:31:53.377Z,97.41
2022-10-20T05:32:53.376Z,97.11
2022-10-20T05:33:53.367Z,96.91
2022-10-20T05:34:53.347Z,96.70
2022-10-20T05:35:53.331Z,96.45
2022-10-20T05:36:53.323Z,96.34
2022-10-20T05:37:53.574Z,96.04
2022-10-20T05:38:53.295Z,95.73
2022-10-20T05:39:53.290Z,95.43
2022-10-20T05:40:53.277Z,95.07
2022-10-20T05:41:53.270Z,94.87
2022-10-20T05:42:53.335Z,94.77
2022-10-20T05:43:53.239Z,94.56
2022-10-20T05:44:53.245Z,94.46
2022-10-20T05:45:53.236Z,94.15
2022-10-20T05:46:54.053Z,93.91
2022-10-20T05:47:53.202Z,93.70
2022-10-20T05:48:53.205Z,93.60
2022-10-20T05:49:53.181Z,93.29
2022-10-20T05:50:53.190Z,93.29
2022-10-20T05:51:53.189Z,93.29
2022-10-20T05:52:53.151Z,93.19
2022-10-20T05:53:53.128Z,92.99
2022-10-20T05:54:53.121Z,92.88
2022-10-20T05:55:53.114Z,92.68
2022-10-20T05:56:53.130Z,92.68
2022-10-20T05:57:53.538Z,92.58
2022-10-20T05:58:53.098Z,92.33
2022-10-20T05:59:53.085Z,92.13
2022-10-20T06:00:53.068Z,91.82
2022-10-20T06:01:53.044Z,91.72
2022-10-20T06:02:53.073Z,91.61
2022-10-20T06:03:53.978Z,91.72
2022-10-20T06:04:53.018Z,91.52
2022-10-20T06:05:53.007Z,91.31
2022-10-20T06:06:53.008Z,91.11
2022-10-20T06:07:52.977Z,90.90
2022-10-20T06:08:53.045Z,90.86
2022-10-20T06:09:53.006Z,90.86
2022-10-20T06:10:53.627Z,90.75
2022-10-20T06:11:53.185Z,90.66
2022-10-20T06:12:52.927Z,90.55
2022-10-20T06:13:53.939Z,90.45
2022-10-20T06:14:52.890Z,90.35
2022-10-20T06:15:52.890Z,90.25
2022-10-20T06:16:53.004Z,90.35
2022-10-20T06:17:52.906Z,90.35
2022-10-20T06:18:52.959Z,90.35
2022-10-20T06:19:52.894Z,90.25
2022-10-20T06:20:52.835Z,90.04
2022-10-20T06:21:52.830Z,90.04
2022-10-20T06:22:52.837Z,90.14
2022-10-20T06:23:52.808Z,89.94
2022-10-20T06:24:52.793Z,89.69
2022-10-20T06:25:52.802Z,89.69
2022-10-20T06:26:52.778Z,89.49
2022-10-20T06:27:53.946Z,89.28
2022-10-20T06:28:52.769Z,89.39
2022-10-20T06:29:52.776Z,89.49
2022-10-20T06:30:52.729Z,89.39
2022-10-20T06:31:52.732Z,89.18
2022-10-20T06:32:52.720Z,88.98
2022-10-20T06:33:52.695Z,88.78
2022-10-20T06:34:52.696Z,88.78
2022-10-20T06:35:52.689Z,88.63
2022-10-20T06:36:52.660Z,88.63
2022-10-20T06:37:52.664Z,88.43
2022-10-20T06:38:52.692Z,88.22
2022-10-20T06:39:52.656Z,88.12
2022-10-20T06:40:52.628Z,88.12
2022-10-20T06:41:52.616Z,88.22
2022-10-20T06:42:52.677Z,88.12
2022-10-20T06:43:52.587Z,87.92
2022-10-20T06:44:52.594Z,88.02
2022-10-20T06:45:52.558Z,87.92
2022-10-20T06:46:52.680Z,87.88
2022-10-20T06:47:52.536Z,87.77
2022-10-20T06:48:57.736Z,87.67
2022-10-20T06:49:53.526Z,87.37
2022-10-20T06:50:52.488Z,87.47
2022-10-20T06:51:52.509Z,87.47
2022-10-20T06:52:52.492Z,87.57
2022-10-20T06:53:53.431Z,87.26
2022-10-20T06:54:52.453Z,87.16
2022-10-20T06:55:52.484Z,87.16
2022-10-20T06:56:52.438Z,87.26
2022-10-20T06:57:52.808Z,87.16
2022-10-20T06:58:52.399Z,87.16
2022-10-20T06:59:52.400Z,86.96
2022-10-20T07:00:52.394Z,86.82
2022-10-20T07:01:52.448Z,86.71
2022-10-20T07:02:52.390Z,86.82
2022-10-20T07:03:52.364Z,86.71
2022-10-20T07:04:52.362Z,86.51
2022-10-20T07:05:52.332Z,86.61
2022-10-20T07:06:52.312Z,86.41
2022-10-20T07:07:52.353Z,86.21
2022-10-20T07:08:52.348Z,86.16
2022-10-20T07:09:52.292Z,85.96
2022-10-20T07:10:52.269Z,85.96
2022-10-20T07:11:52.278Z,85.75
2022-10-20T07:12:52.250Z,85.55
2022-10-20T07:13:52.266Z,85.55
2022-10-20T07:14:52.237Z,85.55
2022-10-20T07:15:52.225Z,85.45
2022-10-20T07:16:52.294Z,85.45
2022-10-20T07:17:52.224Z,85.45
2022-10-20T07:18:52.206Z,85.35
2022-10-20T07:19:52.232Z,85.31
2022-10-20T07:20:52.187Z,85.11
2022-10-20T07:21:52.165Z,85.21
2022-10-20T07:22:52.198Z,85.31
2022-10-20T07:23:52.136Z,85.41
2022-10-20T07:24:52.126Z,85.31
2022-10-20T07:25:52.512Z,85.31
2022-10-20T07:26:52.131Z,85.21
2022-10-20T07:27:52.098Z,85.11
2022-10-20T07:28:55.738Z,85.00
2022-10-20T07:29:52.098Z,84.70
2022-10-20T07:30:52.068Z,84.59
2022-10-20T07:31:52.838Z,84.59
2022-10-20T07:32:52.039Z,84.70
2022-10-20T07:34:06.891Z,84.80
2022-10-20T07:34:53.008Z,84.86
2022-10-20T07:35:52.015Z,84.97
2022-10-20T07:36:51.999Z,84.76
2022-10-20T07:37:52.030Z,84.76
2022-10-20T07:38:51.977Z,84.56
2022-10-20T07:39:51.961Z,84.56
2022-10-20T07:40:52.032Z,84.45
2022-10-20T07:41:51.943Z,84.25
2022-10-20T07:42:52.480Z,84.35
2022-10-20T07:43:51.951Z,84.05
2022-10-20T07:44:51.914Z,83.95
2022-10-20T07:45:51.893Z,84.11
2022-10-20T07:46:52.031Z,84.21
2022-10-20T07:47:51.918Z,84.21
2022-10-20T07:48:51.865Z,84.31
2022-10-20T07:49:51.881Z,84.21
2022-10-20T07:50:51.842Z,84.21
2022-10-20T07:51:51.842Z,84.11
2022-10-20T07:52:51.843Z,84.21
2022-10-20T07:53:52.582Z,84.11
2022-10-20T07:54:58.042Z,83.91
2022-10-20T07:55:52.791Z,83.91
2022-10-20T07:56:51.810Z,84.01
2022-10-20T07:57:51.787Z,83.81
2022-10-20T07:58:52.694Z,83.81
2022-10-20T07:59:51.737Z,83.70
2022-10-20T08:00:51.726Z,83.70
2022-10-20T08:01:54.775Z,83.76
2022-10-20T08:02:52.742Z,83.87
2022-10-20T08:03:51.704Z,83.76
2022-10-20T08:04:51.683Z,83.67
2022-10-20T08:05:51.687Z,83.67
2022-10-20T08:06:51.767Z,83.76
2022-10-20T08:07:51.653Z,83.67
2022-10-20T08:08:51.704Z,83.76
2022-10-20T08:09:52.023Z,83.67
2022-10-20T08:10:51.668Z,83.56
2022-10-20T08:11:54.550Z,83.67
2022-10-20T08:12:51.628Z,83.67
2022-10-20T08:13:51.577Z,83.46
2022-10-20T08:14:51.619Z,83.56
2022-10-20T08:15:52.330Z,83.67
2022-10-20T08:16:54.524Z,83.56
2022-10-20T08:17:51.552Z,83.56
2022-10-20T08:18:52.455Z,83.56
2022-10-20T08:19:54.905Z,83.67
2022-10-20T08:20:51.610Z,83.73
2022-10-20T08:21:51.523Z,83.73
2022-10-20T08:22:51.503Z,83.53
2022-10-20T08:23:51.494Z,83.53
2022-10-20T08:24:51.513Z,83.53
2022-10-20T08:25:51.455Z,83.42
2022-10-20T08:26:52.299Z,83.32
2022-10-20T08:27:51.473Z,83.22
2022-10-20T08:28:51.427Z,83.22
2022-10-20T08:30:00.366Z,83.22
2022-10-20T08:30:52.435Z,83.22
2022-10-20T08:31:51.416Z,83.12
2022-10-20T08:32:51.384Z,83.12
2022-10-20T08:33:52.973Z,83.12
2022-10-20T08:34:51.370Z,83.01
2022-10-20T08:35:51.334Z,82.71
2022-10-20T08:36:51.374Z,82.81
2022-10-20T08:37:51.306Z,82.71
2022-10-20T08:38:51.300Z,82.67
2022-10-20T08:39:51.347Z,82.61
2022-10-20T08:40:51.299Z,82.47
2022-10-20T08:42:52.337Z,82.37
2022-10-20T08:43:51.246Z,82.26
2022-10-20T08:44:51.239Z,82.17
2022-10-20T08:45:51.230Z,82.26
2022-10-20T08:46:51.264Z,82.37
2022-10-20T08:47:51.200Z,82.37
2022-10-20T08:48:51.360Z,82.37
2022-10-20T08:49:51.189Z,82.37
2022-10-20T08:50:51.469Z,82.47
2022-10-20T08:51:51.154Z,82.47
2022-10-20T08:52:51.171Z,82.12
2022-10-20T08:53:51.265Z,81.92
2022-10-20T08:54:51.130Z,81.92
2022-10-20T08:55:51.110Z,82.03
2022-10-20T08:56:51.101Z,82.03
2022-10-20T08:57:51.148Z,81.92
2022-10-20T08:58:51.161Z,81.92
2022-10-20T08:59:51.067Z,82.23
2022-10-20T09:00:51.063Z,82.23
2022-10-20T09:01:51.107Z,82.12
2022-10-20T09:02:51.044Z,82.03
2022-10-20T09:03:51.039Z,82.03
2022-10-20T09:04:51.041Z,82.12
2022-10-20T09:05:51.007Z,81.82
2022-10-20T09:06:50.985Z,81.72
2022-10-20T09:07:50.985Z,81.82
2022-10-20T09:08:51.069Z,81.72
2022-10-20T09:09:50.960Z,81.78
2022-10-20T09:10:50.973Z,81.68
2022-10-20T09:11:51.021Z,81.88
2022-10-20T09:12:50.926Z,81.88
2022-10-20T09:13:50.953Z,81.68
2022-10-20T09:14:51.026Z,81.58
2022-10-20T09:15:50.908Z,81.68
2022-10-20T09:17:02.684Z,81.78
2022-10-20T09:17:51.865Z,81.68
2022-10-20T09:18:50.897Z,81.58
2022-10-20T09:19:50.878Z,81.48
2022-10-20T09:20:50.839Z,81.27
2022-10-20T09:21:50.830Z,81.18
2022-10-20T09:22:51.064Z,81.58
2022-10-20T09:24:50.810Z,81.07
2022-10-20T09:25:50.778Z,81.27
2022-10-20T09:26:58.824Z,81.38
2022-10-20T09:27:51.830Z,81.27
2022-10-20T09:29:12.055Z,81.27
2022-10-20T09:29:51.764Z,81.48
2022-10-20T09:30:50.736Z,81.58
2022-10-20T09:31:50.730Z,81.68
2022-10-20T09:32:50.755Z,81.78
2022-10-20T09:33:50.695Z,81.68
2022-10-20T09:34:50.693Z,81.58
2022-10-20T09:35:50.687Z,81.78
2022-10-20T09:36:50.683Z,81.88
2022-10-20T09:37:50.716Z,81.78
2022-10-20T09:38:50.644Z,81.78
2022-10-20T09:39:55.122Z,81.88
2022-10-20T09:40:51.636Z,81.68
2022-10-20T09:41:50.634Z,81.78
2022-10-20T09:42:50.618Z,82.09
2022-10-20T09:43:52.201Z,82.19
2022-10-20T09:44:50.566Z,82.09
2022-10-20T09:45:50.583Z,81.88
2022-10-20T09:46:50.573Z,81.78
2022-10-20T09:47:51.524Z,81.99
2022-10-20T09:48:50.531Z,82.09
2022-10-20T09:49:50.566Z,82.09
2022-10-20T09:50:50.510Z,81.78
2022-10-20T09:51:50.541Z,81.78
2022-10-20T09:52:50.497Z,81.88
2022-10-20T09:53:50.502Z,81.99
2022-10-20T09:54:50.461Z,82.09
2022-10-20T09:55:50.479Z,82.09
2022-10-20T09:56:50.449Z,81.99
2022-10-20T09:57:50.426Z,82.19
2022-10-20T09:58:51.129Z,81.99
2022-10-20T09:59:50.470Z,81.78
2022-10-20T10:00:50.536Z,81.58
2022-10-20T10:01:50.382Z,81.78
2022-10-20T10:02:50.380Z,81.88
2022-10-20T10:03:50.368Z,81.88
2022-10-20T10:04:50.379Z,81.99
2022-10-20T10:05:50.397Z,82.09
2022-10-20T10:06:50.352Z,82.19
2022-10-20T10:07:50.323Z,82.19
2022-10-20T10:08:50.352Z,82.19
2022-10-20T10:09:50.292Z,82.09
2022-10-20T10:10:50.294Z,82.19
2022-10-20T10:11:50.318Z,82.09
2022-10-20T10:12:50.285Z,82.09
2022-10-20T10:13:50.257Z,82.09
2022-10-20T10:14:50.264Z,81.99
2022-10-20T10:15:50.234Z,81.99
2022-10-20T10:16:50.265Z,81.99
2022-10-20T10:17:50.208Z,81.99
2022-10-20T10:18:50.196Z,81.68
2022-10-20T10:19:52.573Z,81.68
2022-10-20T10:20:51.186Z,81.88
2022-10-20T10:21:50.177Z,82.05
2022-10-20T10:22:50.187Z,82.15
2022-10-20T10:23:50.141Z,82.15
2022-10-20T10:24:50.160Z,82.35
2022-10-20T10:25:50.119Z,82.05
2022-10-20T10:26:50.112Z,82.15
2022-10-20T10:27:50.098Z,81.95
2022-10-20T10:28:50.136Z,81.95
2022-10-20T10:29:50.102Z,81.95
2022-10-20T10:30:50.300Z,81.95
2022-10-20T10:31:50.061Z,81.95
2022-10-20T10:32:50.039Z,82.05
2022-10-20T10:33:50.085Z,82.25
2022-10-20T10:34:50.026Z,82.35
2022-10-20T10:35:50.028Z,82.86
2022-10-20T10:36:50.022Z,83.17
2022-10-20T10:37:49.980Z,83.47
2022-10-20T10:38:49.984Z,83.67
2022-10-20T10:39:49.979Z,83.77
2022-10-20T10:40:49.970Z,83.98
2022-10-20T10:41:50.025Z,84.08
2022-10-20T10:42:49.934Z,84.28
2022-10-20T10:43:49.925Z,84.48
2022-10-20T10:44:49.934Z,84.38
2022-10-20T10:45:49.896Z,84.48
2022-10-20T10:46:50.882Z,84.48
2022-10-20T10:47:49.894Z,84.48
2022-10-20T10:48:49.878Z,84.38
2022-10-20T10:49:49.850Z,84.38
2022-10-20T10:50:49.845Z,84.38
2022-10-20T10:51:49.831Z,84.38
2022-10-20T10:52:49.866Z,84.28
2022-10-20T10:53:49.804Z,84.28
2022-10-20T10:54:49.805Z,83.98
2022-10-20T10:55:49.862Z,83.98
2022-10-20T10:56:49.857Z,83.98
2022-10-20T10:57:49.757Z,84.18
2022-10-20T10:58:49.792Z,84.38
2022-10-20T10:59:49.753Z,84.28
2022-10-20T11:00:49.770Z,84.28
2022-10-20T11:01:49.764Z,84.08
2022-10-20T11:02:49.729Z,84.18
2022-10-20T11:03:49.697Z,84.38
2022-10-20T11:04:49.932Z,84.08
2022-10-20T11:05:49.947Z,83.87
2022-10-20T11:06:53.002Z,83.87
2022-10-20T11:07:50.651Z,83.87
2022-10-20T11:08:49.696Z,83.87
2022-10-20T11:09:49.761Z,83.87
2022-10-20T11:10:49.654Z,84.18
2022-10-20T11:11:49.602Z,84.38
2022-10-20T11:12:49.604Z,84.48
2022-10-20T11:13:49.612Z,84.69
2022-10-20T11:14:49.580Z,84.99
2022-10-20T11:15:50.461Z,85.09
2022-10-20T11:16:49.564Z,85.30
2022-10-20T11:17:49.580Z,85.50
2022-10-20T11:18:49.544Z,85.50
2022-10-20T11:19:49.535Z,85.50
2022-10-20T11:20:49.610Z,85.70
2022-10-20T11:21:49.525Z,86.21
2022-10-20T11:22:49.545Z,86.31
2022-10-20T11:23:49.576Z,86.41
2022-10-20T11:24:49.465Z,86.51
2022-10-20T11:25:49.466Z,86.71
2022-10-20T11:26:49.497Z,86.91
2022-10-20T11:27:49.469Z,86.82
2022-10-20T11:28:49.426Z,86.82
2022-10-20T11:29:49.456Z,86.91
2022-10-20T11:30:49.395Z,87.02
2022-10-20T11:31:50.360Z,87.12
2022-10-20T11:32:49.395Z,87.22
2022-10-20T11:33:49.366Z,87.32
2022-10-20T11:34:49.437Z,87.32
2022-10-20T11:35:49.378Z,87.43
2022-10-20T11:36:49.362Z,87.63
2022-10-20T11:37:49.348Z,87.93
2022-10-20T11:38:49.682Z,88.03
2022-10-20T11:39:49.289Z,88.13
2022-10-20T11:40:49.316Z,88.34
2022-10-20T11:41:49.328Z,88.58
2022-10-20T11:42:49.298Z,88.68
2022-10-20T11:43:49.289Z,88.78
2022-10-20T11:44:49.260Z,88.99
2022-10-20T11:45:49.246Z,89.09
2022-10-20T11:46:49.261Z,89.39
2022-10-20T11:47:49.212Z,89.50
2022-10-20T11:48:49.222Z,89.70
2022-10-20T11:49:49.185Z,90.05
2022-10-20T11:50:49.192Z,90.25
2022-10-20T11:51:49.185Z,90.25
2022-10-20T11:52:49.203Z,90.45
2022-10-20T11:53:49.154Z,90.75
2022-10-20T11:54:49.164Z,90.96
2022-10-20T11:55:49.132Z,91.36
2022-10-20T11:56:49.116Z,91.47
2022-10-20T11:57:49.123Z,91.47
2022-10-20T11:58:49.114Z,91.77
2022-10-20T11:59:49.116Z,91.71
2022-10-20T12:00:49.126Z,91.82
2022-10-20T12:01:49.137Z,91.82
2022-10-20T12:02:49.061Z,92.12
2022-10-20T12:03:49.038Z,92.32
2022-10-20T12:04:49.068Z,92.52
2022-10-20T12:05:49.019Z,92.72
2022-10-20T12:06:49.015Z,92.72
2022-10-20T12:07:51.584Z,92.72
2022-10-20T12:08:51.516Z,92.83
2022-10-20T12:09:48.979Z,92.97
2022-10-20T12:10:48.979Z,93.18
2022-10-20T12:11:49.019Z,93.38
2022-10-20T12:12:48.940Z,93.68
2022-10-20T12:13:48.935Z,93.89
2022-10-20T12:14:48.950Z,93.99
2022-10-20T12:15:50.889Z,93.99
2022-10-20T12:16:49.796Z,93.99
2022-10-20T12:17:48.887Z,94.20
2022-10-20T12:18:48.921Z,94.40
2022-10-20T12:19:48.861Z,94.50
2022-10-20T12:20:48.926Z,94.40
2022-10-20T12:21:48.858Z,94.40
2022-10-20T12:22:48.872Z,94.50
2022-10-20T12:23:48.839Z,94.60
2022-10-20T12:24:48.837Z,94.80
2022-10-20T12:25:49.025Z,94.90
2022-10-20T12:26:48.845Z,95.01
2022-10-20T12:27:48.806Z,95.01
2022-10-20T12:28:48.767Z,95.01
2022-10-20T12:29:48.770Z,95.01
2022-10-20T12:30:49.886Z,95.10
2022-10-20T12:31:51.470Z,95.10
2022-10-20T12:32:48.746Z,95.21
2022-10-20T12:33:48.704Z,95.31
2022-10-20T12:34:48.712Z,95.31
2022-10-20T12:35:48.678Z,95.31
2022-10-20T12:36:48.787Z,95.41
2022-10-20T12:37:48.792Z,95.41
2022-10-20T12:38:48.735Z,95.41
2022-10-20T12:39:48.647Z,95.51
2022-10-20T12:40:48.643Z,95.51
2022-10-20T12:41:48.635Z,95.51
2022-10-20T12:42:48.735Z,95.51
2022-10-20T12:43:48.596Z,95.62
2022-10-20T12:44:49.787Z,95.62
2022-10-20T12:45:48.582Z,95.62
2022-10-20T12:46:48.572Z,95.62
2022-10-20T12:47:48.543Z,95.62
2022-10-20T12:48:48.590Z,95.57
2022-10-20T12:49:48.573Z,95.67
2022-10-20T12:50:48.525Z,95.67
2022-10-20T12:51:48.514Z,95.57
2022-10-20T12:52:48.511Z,95.47
2022-10-20T12:53:48.502Z,95.57
2022-10-20T12:54:48.852Z,95.53
2022-10-20T12:55:48.517Z,95.53
2022-10-20T12:56:48.467Z,95.42